Terminal Aerodrome Forecast
Issued by NWS

Home | Current Version | Previous Version | Text Only | Print | Product List | Glossary On
Versions: 1 2 3 4 5 6 7 8 9 10 11 12 13 14 15 16 17
000
FTAK31 PAJN 280600 AAB
TAFAPG
TAF AMD
PAPG 280647Z 2807/2906 00000KT 4SM BCFG BR SCT002 BKN060
      TEMPO 2807/2811 1/2SM FG OVC002
     FM281100 00000KT 1SM BR SCT002 BKN060
      TEMPO 2811/2815 1/2SM FG OVC002
     FM281600 06005KT P6SM SCT060 BKN150
     FM290000 06004KT P6SM VCSH BKN040 OVC080
      AMD LTD TO CLD VIS AND WIND 2807/2815=

USA.gov is the U.S. government's official web portal to all federal, state and local government web resources and services.